sensor_id;sensor_type;location;lat;lon;timestamp;noise_LAeq;noise_LA_min;noise_LA_max;noise_LA01;noise_LA95
74214;Laerm;62576;55.694;37.494;2023-04-25T00:01:14;64.65;59.38;70.77;;
74214;Laerm;62576;55.694;37.494;2023-04-25T00:03:44;65.05;59.60;79.46;;
74214;Laerm;62576;55.694;37.494;2023-04-25T00:06:14;65.09;59.59;74.46;;
74214;Laerm;62576;55.694;37.494;2023-04-25T00:08:44;65.66;60.39;80.37;;
74214;Laerm;62576;55.694;37.494;2023-04-25T00:11:15;66.50;62.82;70.10;;
74214;Laerm;62576;55.694;37.494;2023-04-25T00:13:45;66.23;61.32;79.09;;
74214;Laerm;62576;55.694;37.494;2023-04-25T00:16:17;67.58;62.06;82.48;;
74214;Laerm;62576;55.694;37.494;2023-04-25T00:18:46;64.46;59.29;68.90;;
74214;Laerm;62576;55.694;37.494;2023-04-25T00:21:19;66.39;59.92;82.82;;
74214;Laerm;62576;55.694;37.494;2023-04-25T00:23:50;65.17;60.94;73.10;;
74214;Laerm;62576;55.694;37.494;2023-04-25T00:26:22;64.53;58.92;77.31;;
74214;Laerm;62576;55.694;37.494;2023-04-25T00:28:52;67.03;61.10;85.97;;
74214;Laerm;62576;55.694;37.494;2023-04-25T00:31:24;64.37;60.12;69.43;;
74214;Laerm;62576;55.694;37.494;2023-04-25T00:33:54;64.54;60.39;69.78;;
74214;Laerm;62576;55.694;37.494;2023-04-25T00:36:24;63.59;58.55;69.05;;
74214;Laerm;62576;55.694;37.494;2023-04-25T00:38:56;64.14;59.08;75.76;;
74214;Laerm;62576;55.694;37.494;2023-04-25T00:41:27;64.01;58.33;69.86;;
74214;Laerm;62576;55.694;37.494;2023-04-25T00:43:59;61.76;57.25;67.18;;
74214;Laerm;62576;55.694;37.494;2023-04-25T00:46:30;61.50;57.45;70.47;;
74214;Laerm;62576;55.694;37.494;2023-04-25T00:49:00;62.54;56.26;73.45;;
74214;Laerm;62576;55.694;37.494;2023-04-25T00:51:30;62.13;58.02;68.47;;
74214;Laerm;62576;55.694;37.494;2023-04-25T00:54:02;63.59;58.68;69.49;;
74214;Laerm;62576;55.694;37.494;2023-04-25T00:56:34;62.89;57.95;68.57;;
74214;Laerm;62576;55.694;37.494;2023-04-25T00:59:04;60.73;56.44;67.42;;
74214;Laerm;62576;55.694;37.494;2023-04-25T01:01:34;62.26;56.75;73.51;;
74214;Laerm;62576;55.694;37.494;2023-04-25T01:04:06;63.24;59.19;67.77;;
74214;Laerm;62576;55.694;37.494;2023-04-25T01:06:36;61.07;57.16;70.83;;
74214;Laerm;62576;55.694;37.494;2023-04-25T01:09:07;62.02;57.94;69.28;;
74214;Laerm;62576;55.694;37.494;2023-04-25T01:11:39;60.48;54.43;69.00;;
74214;Laerm;62576;55.694;37.494;2023-04-25T01:14:09;62.72;57.40;72.06;;
74214;Laerm;62576;55.694;37.494;2023-04-25T01:16:39;60.31;55.35;71.75;;
74214;Laerm;62576;55.694;37.494;2023-04-25T01:19:10;60.18;55.48;65.22;;
74214;Laerm;62576;55.694;37.494;2023-04-25T01:21:42;62.48;54.14;74.93;;
74214;Laerm;62576;55.694;37.494;2023-04-25T01:24:13;61.69;53.93;74.04;;
74214;Laerm;62576;55.694;37.494;2023-04-25T01:26:43;60.09;52.69;68.53;;
74214;Laerm;62576;55.694;37.494;2023-04-25T01:29:18;60.88;53.57;71.01;;
74214;Laerm;62576;55.694;37.494;2023-04-25T01:31:48;62.42;54.48;80.28;;
74214;Laerm;62576;55.694;37.494;2023-04-25T01:34:19;61.95;56.53;75.24;;
74214;Laerm;62576;55.694;37.494;2023-04-25T01:36:51;60.13;52.49;69.29;;
74214;Laerm;62576;55.694;37.494;2023-04-25T01:39:23;56.93;51.44;64.34;;
74214;Laerm;62576;55.694;37.494;2023-04-25T01:41:54;55.61;51.29;62.98;;
74214;Laerm;62576;55.694;37.494;2023-04-25T01:44:24;58.44;51.30;75.91;;
74214;Laerm;62576;55.694;37.494;2023-04-25T01:46:54;59.83;54.95;70.95;;
74214;Laerm;62576;55.694;37.494;2023-04-25T01:49:24;58.47;55.71;70.32;;
74214;Laerm;62576;55.694;37.494;2023-04-25T01:51:56;58.92;49.45;69.01;;
74214;Laerm;62576;55.694;37.494;2023-04-25T01:54:26;56.45;48.68;64.05;;
74214;Laerm;62576;55.694;37.494;2023-04-25T01:56:57;58.22;50.68;72.61;;
74214;Laerm;62576;55.694;37.494;2023-04-25T01:59:27;56.89;50.86;63.96;;
74214;Laerm;62576;55.694;37.494;2023-04-25T02:02:00;54.76;50.94;63.12;;
74214;Laerm;62576;55.694;37.494;2023-04-25T02:04:32;56.88;50.52;67.37;;
74214;Laerm;62576;55.694;37.494;2023-04-25T02:07:04;59.13;49.55;78.30;;
74214;Laerm;62576;55.694;37.494;2023-04-25T02:09:34;62.23;55.10;71.59;;
74214;Laerm;62576;55.694;37.494;2023-04-25T02:12:04;60.30;50.67;69.18;;
74214;Laerm;62576;55.694;37.494;2023-04-25T02:14:34;57.36;50.49;67.72;;
74214;Laerm;62576;55.694;37.494;2023-04-25T02:17:04;57.66;46.06;65.47;;
74214;Laerm;62576;55.694;37.494;2023-04-25T02:19:35;59.76;46.89;69.94;;
74214;Laerm;62576;55.694;37.494;2023-04-25T02:22:06;65.85;57.91;74.66;;
74214;Laerm;62576;55.694;37.494;2023-04-25T02:24:36;59.93;56.15;66.39;;
74214;Laerm;62576;55.694;37.494;2023-04-25T02:27:06;57.37;55.47;61.76;;
74214;Laerm;62576;55.694;37.494;2023-04-25T02:29:37;58.97;55.77;65.52;;
74214;Laerm;62576;55.694;37.494;2023-04-25T02:32:06;60.86;57.05;68.09;;
74214;Laerm;62576;55.694;37.494;2023-04-25T02:34:36;60.73;56.45;66.11;;
74214;Laerm;62576;55.694;37.494;2023-04-25T02:37:08;59.60;56.20;65.94;;
74214;Laerm;62576;55.694;37.494;2023-04-25T02:39:38;58.57;55.62;63.05;;
74214;Laerm;62576;55.694;37.494;2023-04-25T02:42:08;61.57;56.86;69.97;;
74214;Laerm;62576;55.694;37.494;2023-04-25T02:44:38;61.75;56.04;70.36;;
74214;Laerm;62576;55.694;37.494;2023-04-25T02:47:07;60.53;55.13;67.47;;
74214;Laerm;62576;55.694;37.494;2023-04-25T02:49:38;60.29;55.74;71.22;;
74214;Laerm;62576;55.694;37.494;2023-04-25T02:52:10;60.01;54.60;67.54;;
74214;Laerm;62576;55.694;37.494;2023-04-25T02:54:40;60.97;55.00;68.57;;
74214;Laerm;62576;55.694;37.494;2023-04-25T02:57:10;64.16;57.00;73.05;;
74214;Laerm;62576;55.694;37.494;2023-04-25T02:59:40;58.29;54.37;64.04;;
74214;Laerm;62576;55.694;37.494;2023-04-25T03:02:10;61.75;56.49;69.73;;
74214;Laerm;62576;55.694;37.494;2023-04-25T03:04:40;60.90;56.17;67.13;;
74214;Laerm;62576;55.694;37.494;2023-04-25T03:07:12;60.09;56.33;67.44;;
74214;Laerm;62576;55.694;37.494;2023-04-25T03:09:42;59.99;55.98;65.48;;
74214;Laerm;62576;55.694;37.494;2023-04-25T03:12:11;59.56;56.29;63.24;;
74214;Laerm;62576;55.694;37.494;2023-04-25T03:14:42;58.87;55.53;65.86;;
74214;Laerm;62576;55.694;37.494;2023-04-25T03:17:11;61.96;56.03;72.75;;
74214;Laerm;62576;55.694;37.494;2023-04-25T03:19:45;59.86;55.53;65.09;;
74214;Laerm;62576;55.694;37.494;2023-04-25T03:22:16;60.38;55.91;71.36;;
74214;Laerm;62576;55.694;37.494;2023-04-25T03:24:46;60.80;56.05;66.73;;
74214;Laerm;62576;55.694;37.494;2023-04-25T03:27:16;60.77;56.60;67.30;;
74214;Laerm;62576;55.694;37.494;2023-04-25T03:29:47;61.73;56.04;67.32;;
74214;Laerm;62576;55.694;37.494;2023-04-25T03:32:16;62.71;56.21;70.33;;
74214;Laerm;62576;55.694;37.494;2023-04-25T03:34:43;61.57;56.15;69.58;;
74214;Laerm;62576;55.694;37.494;2023-04-25T03:37:12;61.41;55.72;68.08;;
74214;Laerm;62576;55.694;37.494;2023-04-25T03:39:43;61.34;56.38;70.66;;
74214;Laerm;62576;55.694;37.494;2023-04-25T03:42:13;61.83;56.53;68.69;;
74214;Laerm;62576;55.694;37.494;2023-04-25T03:44:43;61.46;56.12;68.57;;
74214;Laerm;62576;55.694;37.494;2023-04-25T03:47:13;61.41;56.85;66.37;;
74214;Laerm;62576;55.694;37.494;2023-04-25T03:49:43;62.29;56.30;70.55;;
74214;Laerm;62576;55.694;37.494;2023-04-25T03:52:13;61.40;56.51;66.61;;
74214;Laerm;62576;55.694;37.494;2023-04-25T03:54:45;61.48;55.87;68.32;;
74214;Laerm;62576;55.694;37.494;2023-04-25T03:57:15;62.10;56.24;79.27;;
74214;Laerm;62576;55.694;37.494;2023-04-25T03:59:45;62.12;56.11;68.55;;
74214;Laerm;62576;55.694;37.494;2023-04-25T04:02:15;62.11;56.39;70.17;;
74214;Laerm;62576;55.694;37.494;2023-04-25T04:04:45;62.57;56.87;70.61;;
74214;Laerm;62576;55.694;37.494;2023-04-25T04:07:15;62.80;56.93;69.88;;
74214;Laerm;62576;55.694;37.494;2023-04-25T04:09:47;63.85;57.54;68.56;;
74214;Laerm;62576;55.694;37.494;2023-04-25T04:12:17;63.86;58.20;70.70;;
74214;Laerm;62576;55.694;37.494;2023-04-25T04:14:47;63.06;57.24;70.36;;
74214;Laerm;62576;55.694;37.494;2023-04-25T04:17:17;63.20;57.98;68.44;;
74214;Laerm;62576;55.694;37.494;2023-04-25T04:19:48;63.07;57.15;68.83;;
74214;Laerm;62576;55.694;37.494;2023-04-25T04:22:19;63.76;57.36;73.27;;
74214;Laerm;62576;55.694;37.494;2023-04-25T04:24:50;63.95;58.13;69.07;;
74214;Laerm;62576;55.694;37.494;2023-04-25T04:27:21;64.32;58.38;69.67;;
74214;Laerm;62576;55.694;37.494;2023-04-25T04:29:51;64.31;60.04;71.57;;
74214;Laerm;62576;55.694;37.494;2023-04-25T04:32:21;64.11;57.59;69.48;;
74214;Laerm;62576;55.694;37.494;2023-04-25T04:34:49;66.05;59.98;79.51;;
74214;Laerm;62576;55.694;37.494;2023-04-25T04:37:19;64.08;60.46;74.73;;
74214;Laerm;62576;55.694;37.494;2023-04-25T04:39:51;64.72;59.52;78.22;;
74214;Laerm;62576;55.694;37.494;2023-04-25T04:42:21;64.64;60.11;69.86;;
74214;Laerm;62576;55.694;37.494;2023-04-25T04:44:53;64.59;58.35;72.71;;
74214;Laerm;62576;55.694;37.494;2023-04-25T04:47:24;64.67;60.43;69.16;;
74214;Laerm;62576;55.694;37.494;2023-04-25T04:49:54;64.73;60.28;68.99;;
74214;Laerm;62576;55.694;37.494;2023-04-25T04:52:26;64.77;59.71;68.58;;
74214;Laerm;62576;55.694;37.494;2023-04-25T04:54:58;66.33;59.08;79.18;;
74214;Laerm;62576;55.694;37.494;2023-04-25T04:57:28;65.66;61.81;70.13;;
74214;Laerm;62576;55.694;37.494;2023-04-25T04:59:58;66.30;61.69;73.98;;
74214;Laerm;62576;55.694;37.494;2023-04-25T05:02:28;66.37;58.94;75.61;;
74214;Laerm;62576;55.694;37.494;2023-04-25T05:04:59;64.48;60.48;69.57;;
74214;Laerm;62576;55.694;37.494;2023-04-25T05:07:29;64.29;58.37;68.76;;
74214;Laerm;62576;55.694;37.494;2023-04-25T05:10:00;67.00;61.32;78.59;;
74214;Laerm;62576;55.694;37.494;2023-04-25T05:12:30;68.54;61.98;76.70;;
74214;Laerm;62576;55.694;37.494;2023-04-25T05:15:00;65.71;60.33;75.65;;
74214;Laerm;62576;55.694;37.494;2023-04-25T05:17:30;65.27;60.93;71.56;;
74214;Laerm;62576;55.694;37.494;2023-04-25T05:20:01;65.85;62.49;74.03;;
74214;Laerm;62576;55.694;37.494;2023-04-25T05:22:31;65.72;62.01;70.40;;
74214;Laerm;62576;55.694;37.494;2023-04-25T05:25:03;64.84;60.97;69.29;;
74214;Laerm;62576;55.694;37.494;2023-04-25T05:27:33;65.54;61.86;69.25;;
74214;Laerm;62576;55.694;37.494;2023-04-25T05:30:07;65.82;62.28;72.42;;
74214;Laerm;62576;55.694;37.494;2023-04-25T05:32:38;67.00;60.74;76.33;;
74214;Laerm;62576;55.694;37.494;2023-04-25T05:35:06;66.58;61.45;75.54;;
74214;Laerm;62576;55.694;37.494;2023-04-25T05:37:37;66.33;61.19;71.33;;
74214;Laerm;62576;55.694;37.494;2023-04-25T05:40:09;67.38;62.15;81.81;;
74214;Laerm;62576;55.694;37.494;2023-04-25T05:42:39;66.64;61.94;73.41;;
74214;Laerm;62576;55.694;37.494;2023-04-25T05:45:09;66.21;61.76;74.23;;
74214;Laerm;62576;55.694;37.494;2023-04-25T05:47:39;66.79;62.38;71.85;;
74214;Laerm;62576;55.694;37.494;2023-04-25T05:50:10;66.35;62.39;71.14;;
74214;Laerm;62576;55.694;37.494;2023-04-25T05:52:40;66.61;61.43;71.72;;
74214;Laerm;62576;55.694;37.494;2023-04-25T05:55:11;66.45;62.17;70.73;;
74214;Laerm;62576;55.694;37.494;2023-04-25T05:57:41;67.02;62.23;76.48;;
74214;Laerm;62576;55.694;37.494;2023-04-25T06:00:14;66.61;63.35;72.57;;
74214;Laerm;62576;55.694;37.494;2023-04-25T06:02:44;65.42;61.64;69.66;;
74214;Laerm;62576;55.694;37.494;2023-04-25T06:05:14;66.08;62.14;74.85;;
74214;Laerm;62576;55.694;37.494;2023-04-25T06:07:44;66.83;61.84;83.60;;
74214;Laerm;62576;55.694;37.494;2023-04-25T06:10:16;66.54;63.14;76.77;;
74214;Laerm;62576;55.694;37.494;2023-04-25T06:12:46;66.02;61.22;78.65;;
74214;Laerm;62576;55.694;37.494;2023-04-25T06:15:19;66.55;63.24;71.80;;
74214;Laerm;62576;55.694;37.494;2023-04-25T06:17:49;66.61;62.35;82.64;;
74214;Laerm;62576;55.694;37.494;2023-04-25T06:20:19;65.81;61.70;69.03;;
74214;Laerm;62576;55.694;37.494;2023-04-25T06:22:51;65.62;61.43;78.87;;
74214;Laerm;62576;55.694;37.494;2023-04-25T06:25:23;65.93;62.69;70.39;;
74214;Laerm;62576;55.694;37.494;2023-04-25T06:28:00;66.35;61.73;72.67;;
74214;Laerm;62576;55.694;37.494;2023-04-25T06:30:30;66.22;61.74;74.83;;
74214;Laerm;62576;55.694;37.494;2023-04-25T06:33:00;65.80;60.94;75.75;;
74214;Laerm;62576;55.694;37.494;2023-04-25T06:35:27;65.61;62.31;70.67;;
74214;Laerm;62576;55.694;37.494;2023-04-25T06:37:57;65.94;62.18;72.15;;
74214;Laerm;62576;55.694;37.494;2023-04-25T06:40:29;65.87;61.10;76.74;;
74214;Laerm;62576;55.694;37.494;2023-04-25T06:42:59;67.45;60.58;82.10;;
74214;Laerm;62576;55.694;37.494;2023-04-25T06:45:29;67.11;61.13;74.36;;
74214;Laerm;62576;55.694;37.494;2023-04-25T06:47:59;67.37;62.02;72.85;;
74214;Laerm;62576;55.694;37.494;2023-04-25T06:50:29;66.76;60.98;74.01;;
74214;Laerm;62576;55.694;37.494;2023-04-25T06:53:00;66.77;62.90;75.85;;
74214;Laerm;62576;55.694;37.494;2023-04-25T06:55:32;67.88;63.89;73.47;;
74214;Laerm;62576;55.694;37.494;2023-04-25T06:58:06;69.35;64.61;75.86;;
74214;Laerm;62576;55.694;37.494;2023-04-25T07:00:37;67.41;63.31;75.08;;
74214;Laerm;62576;55.694;37.494;2023-04-25T07:03:07;68.96;61.99;83.20;;
74214;Laerm;62576;55.694;37.494;2023-04-25T07:05:37;67.22;62.47;78.66;;
74214;Laerm;62576;55.694;37.494;2023-04-25T07:08:08;67.33;62.99;74.40;;
74214;Laerm;62576;55.694;37.494;2023-04-25T07:10:39;66.78;62.73;73.45;;
74214;Laerm;62576;55.694;37.494;2023-04-25T07:13:09;65.76;61.23;71.51;;
74214;Laerm;62576;55.694;37.494;2023-04-25T07:15:39;66.04;62.00;70.99;;
74214;Laerm;62576;55.694;37.494;2023-04-25T07:18:10;65.69;61.93;73.01;;
74214;Laerm;62576;55.694;37.494;2023-04-25T07:20:40;68.46;61.31;83.64;;
74214;Laerm;62576;55.694;37.494;2023-04-25T07:23:10;65.69;61.49;75.20;;
74214;Laerm;62576;55.694;37.494;2023-04-25T07:25:42;66.39;62.78;72.43;;
74214;Laerm;62576;55.694;37.494;2023-04-25T07:28:12;66.27;61.98;76.04;;
74214;Laerm;62576;55.694;37.494;2023-04-25T07:30:42;67.42;62.39;73.75;;
74214;Laerm;62576;55.694;37.494;2023-04-25T07:33:12;66.75;62.25;74.49;;
74214;Laerm;62576;55.694;37.494;2023-04-25T07:35:39;66.53;62.49;76.57;;
74214;Laerm;62576;55.694;37.494;2023-04-25T07:38:09;67.12;62.67;78.55;;
74214;Laerm;62576;55.694;37.494;2023-04-25T07:40:40;67.80;63.84;78.76;;
74214;Laerm;62576;55.694;37.494;2023-04-25T07:43:11;66.36;60.27;73.51;;
74214;Laerm;62576;55.694;37.494;2023-04-25T07:45:45;65.79;61.23;72.15;;
74214;Laerm;62576;55.694;37.494;2023-04-25T07:48:17;65.56;61.26;70.47;;
74214;Laerm;62576;55.694;37.494;2023-04-25T07:50:47;65.51;61.74;70.10;;
74214;Laerm;62576;55.694;37.494;2023-04-25T07:53:17;66.96;62.71;81.73;;
74214;Laerm;62576;55.694;37.494;2023-04-25T07:55:47;66.20;62.02;81.25;;
74214;Laerm;62576;55.694;37.494;2023-04-25T07:58:19;67.06;62.29;84.53;;
74214;Laerm;62576;55.694;37.494;2023-04-25T08:00:50;67.14;61.94;82.63;;
74214;Laerm;62576;55.694;37.494;2023-04-25T08:03:20;67.16;62.95;84.98;;
74214;Laerm;62576;55.694;37.494;2023-04-25T08:05:50;68.61;62.98;82.24;;
74214;Laerm;62576;55.694;37.494;2023-04-25T08:08:29;66.83;60.08;76.68;;
74214;Laerm;62576;55.694;37.494;2023-04-25T08:10:59;68.05;61.76;79.48;;
74214;Laerm;62576;55.694;37.494;2023-04-25T08:13:30;67.04;59.50;83.22;;
74214;Laerm;62576;55.694;37.494;2023-04-25T08:16:00;66.84;60.39;72.93;;
74214;Laerm;62576;55.694;37.494;2023-04-25T08:18:31;68.53;62.12;91.37;;
74214;Laerm;62576;55.694;37.494;2023-04-25T08:21:01;66.53;60.59;76.70;;
74214;Laerm;62576;55.694;37.494;2023-04-25T08:23:31;70.25;62.73;85.99;;
74214;Laerm;62576;55.694;37.494;2023-04-25T08:26:01;67.53;61.09;81.08;;
74214;Laerm;62576;55.694;37.494;2023-04-25T08:28:34;66.61;62.21;77.45;;
74214;Laerm;62576;55.694;37.494;2023-04-25T08:31:04;66.80;61.09;76.02;;
74214;Laerm;62576;55.694;37.494;2023-04-25T08:33:34;66.94;61.87;77.40;;
74214;Laerm;62576;55.694;37.494;2023-04-25T08:36:04;66.48;61.18;74.96;;
74214;Laerm;62576;55.694;37.494;2023-04-25T08:38:35;64.86;59.38;71.58;;
74214;Laerm;62576;55.694;37.494;2023-04-25T08:41:03;65.48;59.47;79.38;;
74214;Laerm;62576;55.694;37.494;2023-04-25T08:43:37;65.61;59.30;77.88;;
74214;Laerm;62576;55.694;37.494;2023-04-25T08:46:08;65.65;60.88;75.63;;
74214;Laerm;62576;55.694;37.494;2023-04-25T08:48:40;66.60;61.23;83.96;;
74214;Laerm;62576;55.694;37.494;2023-04-25T08:51:15;67.52;62.30;79.56;;
74214;Laerm;62576;55.694;37.494;2023-04-25T08:53:46;66.93;59.91;83.20;;
74214;Laerm;62576;55.694;37.494;2023-04-25T08:56:21;66.23;60.30;73.13;;
74214;Laerm;62576;55.694;37.494;2023-04-25T08:58:56;68.35;60.33;82.37;;
74214;Laerm;62576;55.694;37.494;2023-04-25T09:01:27;65.58;57.56;77.66;;
74214;Laerm;62576;55.694;37.494;2023-04-25T09:04:00;66.13;60.95;75.45;;
74214;Laerm;62576;55.694;37.494;2023-04-25T09:06:30;68.96;62.93;78.20;;
74214;Laerm;62576;55.694;37.494;2023-04-25T09:09:02;67.61;59.10;75.54;;
74214;Laerm;62576;55.694;37.494;2023-04-25T09:11:34;67.01;57.30;76.84;;
74214;Laerm;62576;55.694;37.494;2023-04-25T09:14:13;67.96;59.08;77.26;;
74214;Laerm;62576;55.694;37.494;2023-04-25T09:17:00;64.16;58.84;78.80;;
74214;Laerm;62576;55.694;37.494;2023-04-25T09:19:32;64.73;55.81;74.89;;
74214;Laerm;62576;55.694;37.494;2023-04-25T09:22:04;63.94;55.24;78.07;;
74214;Laerm;62576;55.694;37.494;2023-04-25T09:24:36;64.51;59.11;71.27;;
74214;Laerm;62576;55.694;37.494;2023-04-25T09:27:07;64.31;59.17;76.36;;
74214;Laerm;62576;55.694;37.494;2023-04-25T09:29:40;63.09;55.75;67.90;;
74214;Laerm;62576;55.694;37.494;2023-04-25T09:32:12;63.53;56.69;71.37;;
74214;Laerm;62576;55.694;37.494;2023-04-25T09:34:43;64.97;56.40;80.51;;
74214;Laerm;62576;55.694;37.494;2023-04-25T09:37:17;63.89;56.77;69.37;;
74214;Laerm;62576;55.694;37.494;2023-04-25T09:39:50;63.69;58.52;71.38;;
74214;Laerm;62576;55.694;37.494;2023-04-25T09:42:22;63.90;57.12;71.67;;
74214;Laerm;62576;55.694;37.494;2023-04-25T09:44:55;62.24;56.09;68.61;;
74214;Laerm;62576;55.694;37.494;2023-04-25T09:47:26;64.77;57.67;75.66;;
74214;Laerm;62576;55.694;37.494;2023-04-25T09:49:57;64.86;59.72;75.84;;
74214;Laerm;62576;55.694;37.494;2023-04-25T09:52:27;63.48;57.05;70.47;;
74214;Laerm;62576;55.694;37.494;2023-04-25T09:54:57;62.99;55.30;69.00;;
74214;Laerm;62576;55.694;37.494;2023-04-25T09:57:27;63.14;56.73;73.82;;
74214;Laerm;62576;55.694;37.494;2023-04-25T10:00:00;63.07;53.70;72.43;;
74214;Laerm;62576;55.694;37.494;2023-04-25T10:02:34;63.94;57.34;78.29;;
74214;Laerm;62576;55.694;37.494;2023-04-25T10:05:07;63.72;59.49;69.96;;
74214;Laerm;62576;55.694;37.494;2023-04-25T10:07:38;65.72;58.51;74.65;;
74214;Laerm;62576;55.694;37.494;2023-04-25T10:10:12;65.45;60.31;74.17;;
74214;Laerm;62576;55.694;37.494;2023-04-25T10:12:43;65.49;60.08;77.98;;
74214;Laerm;62576;55.694;37.494;2023-04-25T10:15:15;65.73;56.67;80.44;;
74214;Laerm;62576;55.694;37.494;2023-04-25T10:17:46;64.23;59.69;74.12;;
74214;Laerm;62576;55.694;37.494;2023-04-25T10:20:17;64.84;59.25;75.73;;
74214;Laerm;62576;55.694;37.494;2023-04-25T10:22:54;65.78;59.94;78.10;;
74214;Laerm;62576;55.694;37.494;2023-04-25T10:25:27;64.50;59.85;70.30;;
74214;Laerm;62576;55.694;37.494;2023-04-25T10:27:59;65.43;60.52;71.18;;
74214;Laerm;62576;55.694;37.494;2023-04-25T10:30:30;66.60;60.63;75.37;;
74214;Laerm;62576;55.694;37.494;2023-04-25T10:33:00;65.43;60.74;83.60;;
74214;Laerm;62576;55.694;37.494;2023-04-25T10:35:29;65.26;61.53;71.75;;
74214;Laerm;62576;55.694;37.494;2023-04-25T10:38:03;65.64;60.90;72.26;;
74214;Laerm;62576;55.694;37.494;2023-04-25T10:40:33;66.17;60.39;78.50;;
74214;Laerm;62576;55.694;37.494;2023-04-25T10:43:35;66.15;58.48;74.04;;
74214;Laerm;62576;55.694;37.494;2023-04-25T10:46:23;68.15;59.79;83.34;;
74214;Laerm;62576;55.694;37.494;2023-04-25T10:48:54;64.06;58.58;74.35;;
74214;Laerm;62576;55.694;37.494;2023-04-25T10:51:26;65.85;58.18;83.34;;
74214;Laerm;62576;55.694;37.494;2023-04-25T10:53:57;63.32;57.91;70.89;;
74214;Laerm;62576;55.694;37.494;2023-04-25T10:56:28;64.07;58.20;72.97;;
74214;Laerm;62576;55.694;37.494;2023-04-25T10:59:07;64.20;58.45;75.43;;
74214;Laerm;62576;55.694;37.494;2023-04-25T11:01:41;65.52;59.68;77.38;;
74214;Laerm;62576;55.694;37.494;2023-04-25T11:04:22;65.88;58.35;75.29;;
74214;Laerm;62576;55.694;37.494;2023-04-25T11:07:03;66.45;60.79;80.90;;
74214;Laerm;62576;55.694;37.494;2023-04-25T11:09:36;67.30;61.76;74.20;;
74214;Laerm;62576;55.694;37.494;2023-04-25T11:12:09;65.41;61.94;69.36;;
74214;Laerm;62576;55.694;37.494;2023-04-25T11:14:41;65.25;60.04;71.67;;
74214;Laerm;62576;55.694;37.494;2023-04-25T11:17:12;66.15;60.28;73.27;;
74214;Laerm;62576;55.694;37.494;2023-04-25T11:19:43;65.85;62.41;76.24;;
74214;Laerm;62576;55.694;37.494;2023-04-25T11:22:13;67.79;62.59;75.17;;
74214;Laerm;62576;55.694;37.494;2023-04-25T11:24:44;66.89;62.42;78.70;;
74214;Laerm;62576;55.694;37.494;2023-04-25T11:27:15;66.83;62.63;76.28;;
74214;Laerm;62576;55.694;37.494;2023-04-25T11:29:45;69.63;62.29;89.35;;
74214;Laerm;62576;55.694;37.494;2023-04-25T11:32:20;66.38;61.78;80.20;;
74214;Laerm;62576;55.694;37.494;2023-04-25T11:34:50;67.53;61.78;76.08;;
74214;Laerm;62576;55.694;37.494;2023-04-25T11:37:21;67.76;61.19;83.86;;
74214;Laerm;62576;55.694;37.494;2023-04-25T11:39:52;64.96;60.68;70.77;;
74214;Laerm;62576;55.694;37.494;2023-04-25T11:42:22;66.08;61.58;74.51;;
74214;Laerm;62576;55.694;37.494;2023-04-25T11:44:52;66.35;61.38;74.61;;
74214;Laerm;62576;55.694;37.494;2023-04-25T11:47:29;65.90;60.33;74.89;;
74214;Laerm;62576;55.694;37.494;2023-04-25T11:50:00;65.42;60.02;70.87;;
74214;Laerm;62576;55.694;37.494;2023-04-25T11:52:45;66.72;60.37;77.12;;
74214;Laerm;62576;55.694;37.494;2023-04-25T11:55:19;68.05;60.20;79.59;;
74214;Laerm;62576;55.694;37.494;2023-04-25T11:57:50;68.71;61.77;78.55;;
74214;Laerm;62576;55.694;37.494;2023-04-25T12:00:21;66.88;61.32;77.21;;
74214;Laerm;62576;55.694;37.494;2023-04-25T12:02:54;70.58;63.16;79.19;;
74214;Laerm;62576;55.694;37.494;2023-04-25T12:05:30;66.87;61.28;76.31;;
74214;Laerm;62576;55.694;37.494;2023-04-25T12:08:11;67.97;61.14;79.47;;
74214;Laerm;62576;55.694;37.494;2023-04-25T12:10:43;66.85;60.94;79.40;;
74214;Laerm;62576;55.694;37.494;2023-04-25T12:13:21;67.73;61.36;79.64;;
74214;Laerm;62576;55.694;37.494;2023-04-25T12:15:51;65.83;61.32;79.15;;
74214;Laerm;62576;55.694;37.494;2023-04-25T12:18:24;66.91;60.92;89.88;;
74214;Laerm;62576;55.694;37.494;2023-04-25T12:20:56;67.02;60.78;86.27;;
74214;Laerm;62576;55.694;37.494;2023-04-25T12:23:28;66.77;59.79;79.87;;
74214;Laerm;62576;55.694;37.494;2023-04-25T12:25:58;65.89;60.68;70.32;;
74214;Laerm;62576;55.694;37.494;2023-04-25T12:28:32;66.48;61.15;77.00;;
74214;Laerm;62576;55.694;37.494;2023-04-25T12:31:05;65.23;60.31;70.73;;
74214;Laerm;62576;55.694;37.494;2023-04-25T12:33:38;66.04;59.77;72.57;;
74214;Laerm;62576;55.694;37.494;2023-04-25T12:36:16;65.53;58.53;83.97;;
74214;Laerm;62576;55.694;37.494;2023-04-25T12:38:46;65.33;59.96;72.27;;
74214;Laerm;62576;55.694;37.494;2023-04-25T12:41:17;64.74;60.58;74.35;;
74214;Laerm;62576;55.694;37.494;2023-04-25T12:43:47;64.78;60.89;70.45;;
74214;Laerm;62576;55.694;37.494;2023-04-25T12:46:17;65.35;60.27;78.13;;
74214;Laerm;62576;55.694;37.494;2023-04-25T12:48:49;65.26;60.34;72.31;;
74214;Laerm;62576;55.694;37.494;2023-04-25T12:51:19;64.28;59.66;73.45;;
74214;Laerm;62576;55.694;37.494;2023-04-25T12:53:49;65.86;60.30;78.65;;
74214;Laerm;62576;55.694;37.494;2023-04-25T12:56:19;65.14;60.49;73.93;;
74214;Laerm;62576;55.694;37.494;2023-04-25T12:58:49;68.36;59.36;77.54;;
74214;Laerm;62576;55.694;37.494;2023-04-25T13:01:19;68.12;60.10;77.36;;
74214;Laerm;62576;55.694;37.494;2023-04-25T13:03:51;66.44;59.33;75.40;;
74214;Laerm;62576;55.694;37.494;2023-04-25T13:06:22;64.29;58.97;71.64;;
74214;Laerm;62576;55.694;37.494;2023-04-25T13:08:52;65.31;60.55;72.66;;
74214;Laerm;62576;55.694;37.494;2023-04-25T13:11:22;65.13;61.72;70.59;;
74214;Laerm;62576;55.694;37.494;2023-04-25T13:13:52;65.19;61.62;70.71;;
74214;Laerm;62576;55.694;37.494;2023-04-25T13:16:22;65.90;60.32;78.20;;
74214;Laerm;62576;55.694;37.494;2023-04-25T13:18:54;65.98;60.99;72.79;;
74214;Laerm;62576;55.694;37.494;2023-04-25T13:21:24;67.76;60.93;74.97;;
74214;Laerm;62576;55.694;37.494;2023-04-25T13:23:55;66.20;59.77;76.11;;
74214;Laerm;62576;55.694;37.494;2023-04-25T13:26:25;67.06;59.63;75.61;;
74214;Laerm;62576;55.694;37.494;2023-04-25T13:28:55;70.21;60.62;84.25;;
74214;Laerm;62576;55.694;37.494;2023-04-25T13:31:25;66.07;60.54;76.21;;
74214;Laerm;62576;55.694;37.494;2023-04-25T13:33:56;68.04;59.57;77.91;;
74214;Laerm;62576;55.694;37.494;2023-04-25T13:36:26;68.09;59.08;84.30;;
74214;Laerm;62576;55.694;37.494;2023-04-25T13:38:57;66.34;57.05;80.96;;
74214;Laerm;62576;55.694;37.494;2023-04-25T13:41:27;65.18;59.30;81.49;;
74214;Laerm;62576;55.694;37.494;2023-04-25T13:43:57;69.36;58.60;85.70;;
74214;Laerm;62576;55.694;37.494;2023-04-25T13:46:28;64.48;57.67;75.72;;
74214;Laerm;62576;55.694;37.494;2023-04-25T13:48:59;63.80;58.35;74.39;;
74214;Laerm;62576;55.694;37.494;2023-04-25T13:51:30;64.96;59.92;81.03;;
74214;Laerm;62576;55.694;37.494;2023-04-25T13:54:00;63.73;59.05;71.59;;